createdAt,value
2019-03-23T00:00:28.650Z,18.28
2019-03-23T00:01:29.225Z,18.29
2019-03-23T00:02:29.802Z,18.23
2019-03-23T00:03:30.377Z,18.28
2019-03-23T00:04:30.955Z,18.26
2019-03-23T00:05:31.529Z,18.29
2019-03-23T00:06:32.158Z,18.25
2019-03-23T00:07:32.735Z,18.33
2019-03-23T00:08:33.312Z,18.26
2019-03-23T00:09:33.888Z,18.29
2019-03-23T00:10:34.464Z,18.28
2019-03-23T00:11:35.042Z,18.28
2019-03-23T00:12:35.668Z,18.28
2019-03-23T00:13:36.243Z,18.23
2019-03-23T00:14:36.820Z,18.25
2019-03-23T00:15:37.397Z,18.18
2019-03-23T00:16:37.974Z,18.20
2019-03-23T00:17:38.549Z,18.22
2019-03-23T00:18:39.129Z,18.20
2019-03-23T00:19:39.702Z,18.23
2019-03-23T00:20:40.276Z,18.19
2019-03-23T00:21:40.851Z,18.19
2019-03-23T00:22:41.424Z,18.19
2019-03-23T00:23:42.048Z,18.18
2019-03-23T00:24:42.625Z,18.23
2019-03-23T00:25:43.201Z,18.35
2019-03-23T00:26:43.826Z,18.19
2019-03-23T00:27:44.403Z,18.22
2019-03-23T00:28:45.014Z,18.22
2019-03-23T00:29:45.646Z,18.19
2019-03-23T00:30:46.303Z,18.16
2019-03-23T00:31:46.926Z,18.15
2019-03-23T00:32:47.502Z,18.13
2019-03-23T00:33:48.075Z,18.07
2019-03-23T00:34:48.652Z,18.15
2019-03-23T00:35:49.275Z,18.11
2019-03-23T00:36:49.849Z,17.98
2019-03-23T00:37:50.472Z,17.94
2019-03-23T00:38:51.096Z,17.97
2019-03-23T00:39:51.772Z,17.95
2019-03-23T00:40:52.347Z,18.05
2019-03-23T00:41:52.924Z,18.03
2019-03-23T00:42:53.499Z,17.95
2019-03-23T00:43:54.073Z,17.98
2019-03-23T00:44:54.648Z,17.94
2019-03-23T00:45:55.225Z,18.01
2019-03-23T00:46:55.798Z,18.01
2019-03-23T00:47:56.369Z,17.89
2019-03-23T00:48:56.945Z,17.95
2019-03-23T00:49:57.518Z,17.89
2019-03-23T00:50:58.144Z,17.87
2019-03-23T00:51:58.767Z,17.85
2019-03-23T00:52:59.340Z,17.83
2019-03-23T00:53:59.916Z,17.80
2019-03-23T00:55:00.540Z,17.83
2019-03-23T00:56:01.163Z,17.89
2019-03-23T00:57:01.742Z,17.83
2019-03-23T00:58:02.348Z,17.80
2019-03-23T00:59:02.921Z,17.92
2019-03-23T01:00:03.497Z,17.80
2019-03-23T01:01:04.067Z,17.76
2019-03-23T01:02:04.639Z,17.76
2019-03-23T01:03:05.210Z,17.80
2019-03-23T01:04:05.785Z,17.70
2019-03-23T01:05:06.359Z,17.79
2019-03-23T01:06:06.934Z,17.71
2019-03-23T01:07:07.509Z,17.71
2019-03-23T01:08:08.082Z,17.70
2019-03-23T01:09:08.707Z,17.83
2019-03-23T01:10:09.278Z,17.76
2019-03-23T01:11:09.851Z,17.71
2019-03-23T01:12:10.475Z,17.78
2019-03-23T01:13:11.052Z,17.74
2019-03-23T01:14:11.625Z,17.72
2019-03-23T01:15:12.200Z,17.76
2019-03-23T01:16:12.775Z,17.70
2019-03-23T01:17:13.351Z,17.63
2019-03-23T01:18:13.928Z,17.64
2019-03-23T01:19:14.502Z,17.68
2019-03-23T01:20:15.077Z,17.67
2019-03-23T01:21:15.652Z,17.67
2019-03-23T01:22:16.225Z,17.72
2019-03-23T01:23:16.848Z,17.63
2019-03-23T01:24:17.424Z,17.64
2019-03-23T01:25:18.049Z,17.71
2019-03-23T01:26:18.626Z,17.63
2019-03-23T01:27:19.255Z,17.65
2019-03-23T01:28:19.783Z,17.65
2019-03-23T01:29:20.351Z,17.67
2019-03-23T01:30:21.126Z,17.67
2019-03-23T01:31:21.701Z,17.70
2019-03-23T01:32:22.276Z,17.65
2019-03-23T01:33:22.849Z,17.70
2019-03-23T01:34:23.424Z,17.63
2019-03-23T01:35:23.998Z,17.63
2019-03-23T01:36:24.575Z,17.60
2019-03-23T01:37:25.195Z,17.60
2019-03-23T01:38:25.770Z,17.65
2019-03-23T01:39:26.340Z,17.60
2019-03-23T01:40:27.065Z,17.60
2019-03-23T01:41:27.636Z,17.63
2019-03-23T01:42:28.258Z,17.68
2019-03-23T01:43:28.882Z,17.64
2019-03-23T01:44:29.456Z,17.60
2019-03-23T01:45:30.027Z,17.57
2019-03-23T01:46:30.604Z,17.63
2019-03-23T01:47:31.225Z,17.63
2019-03-23T01:48:31.797Z,17.52
2019-03-23T01:49:32.372Z,17.54
2019-03-23T01:50:32.943Z,17.60
2019-03-23T01:51:33.516Z,17.59
2019-03-23T01:52:34.091Z,17.49
2019-03-23T01:53:34.665Z,17.59
2019-03-23T01:54:35.248Z,17.52
2019-03-23T01:55:35.905Z,17.57
2019-03-23T01:56:36.476Z,17.60
2019-03-23T01:57:37.050Z,17.52
2019-03-23T01:58:37.674Z,17.67
2019-03-23T01:59:38.249Z,17.56
2019-03-23T02:00:38.827Z,17.51
2019-03-23T02:01:39.398Z,17.51
2019-03-23T02:02:40.026Z,17.52
2019-03-23T02:03:40.641Z,17.51
2019-03-23T02:04:41.210Z,17.49
2019-03-23T02:05:41.781Z,17.51
2019-03-23T02:06:42.349Z,17.52
2019-03-23T02:07:42.922Z,17.49
2019-03-23T02:08:43.492Z,17.52
2019-03-23T02:09:44.065Z,17.52
2019-03-23T02:10:44.684Z,17.54
2019-03-23T02:11:45.256Z,17.51
2019-03-23T02:12:45.828Z,17.48
2019-03-23T02:13:46.448Z,17.45
2019-03-23T02:14:47.067Z,17.49
2019-03-23T02:15:47.636Z,17.44
2019-03-23T02:16:48.207Z,17.46
2019-03-23T02:17:48.778Z,17.45
2019-03-23T02:18:49.347Z,17.44
2019-03-23T02:19:49.915Z,17.44
2019-03-23T02:20:50.537Z,17.45
2019-03-23T02:21:51.109Z,17.44
2019-03-23T02:22:51.680Z,17.41
2019-03-23T02:23:52.247Z,17.44
2019-03-23T02:24:52.819Z,17.33
2019-03-23T02:25:53.389Z,17.42
2019-03-23T02:26:54.009Z,17.44
2019-03-23T02:27:54.578Z,17.38
2019-03-23T02:28:55.151Z,17.38
2019-03-23T02:29:55.722Z,17.34
2019-03-23T02:30:56.297Z,17.36
2019-03-23T02:31:56.863Z,17.30
2019-03-23T02:32:57.469Z,17.31
2019-03-23T02:33:58.106Z,17.29
2019-03-23T02:34:58.701Z,17.30
2019-03-23T02:35:59.278Z,17.27
2019-03-23T02:36:59.841Z,17.29
2019-03-23T02:38:00.411Z,17.31
2019-03-23T02:39:01.031Z,17.30
2019-03-23T02:40:01.599Z,17.36
2019-03-23T02:41:02.180Z,17.33
2019-03-23T02:42:02.748Z,17.31
2019-03-23T02:43:03.312Z,17.34
2019-03-23T02:44:03.884Z,17.33
2019-03-23T02:45:04.491Z,17.31
2019-03-23T02:46:05.099Z,17.33
2019-03-23T02:47:05.719Z,17.27
2019-03-23T02:48:06.285Z,17.27
2019-03-23T02:49:06.858Z,17.29
2019-03-23T02:50:07.427Z,17.27
2019-03-23T02:51:08.001Z,17.29
2019-03-23T02:52:08.566Z,17.36
2019-03-23T02:53:09.136Z,17.33
2019-03-23T02:54:09.760Z,17.36
2019-03-23T02:55:10.496Z,17.24
2019-03-23T02:56:11.046Z,17.26
2019-03-23T02:57:11.617Z,17.29
2019-03-23T02:58:12.247Z,17.24
2019-03-23T02:59:12.844Z,17.30
2019-03-23T03:00:13.418Z,17.29
2019-03-23T03:01:14.025Z,17.26
2019-03-23T03:02:14.595Z,17.26
2019-03-23T03:03:15.166Z,17.16
2019-03-23T03:04:15.734Z,17.26
2019-03-23T03:05:16.308Z,17.26
2019-03-23T03:06:16.875Z,17.14
2019-03-23T03:07:17.496Z,17.14
2019-03-23T03:08:18.067Z,17.15
2019-03-23T03:09:18.635Z,17.09
2019-03-23T03:10:19.204Z,17.24
2019-03-23T03:11:19.774Z,17.09
2019-03-23T03:12:20.347Z,17.20
2019-03-23T03:13:20.916Z,17.16
2019-03-23T03:14:21.549Z,17.14
2019-03-23T03:15:22.920Z,17.20
2019-03-23T03:16:23.580Z,17.15
2019-03-23T03:17:24.150Z,17.16
2019-03-23T03:18:24.769Z,17.14
2019-03-23T03:19:25.347Z,17.06
2019-03-23T03:20:25.910Z,17.16
2019-03-23T03:21:26.481Z,17.12
2019-03-23T03:22:27.047Z,17.09
2019-03-23T03:23:27.669Z,17.15
2019-03-23T03:24:28.289Z,17.12
2019-03-23T03:25:28.860Z,17.08
2019-03-23T03:26:29.437Z,17.08
2019-03-23T03:27:30.043Z,17.14
2019-03-23T03:28:30.617Z,17.06
2019-03-23T03:29:31.195Z,17.19
2019-03-23T03:30:31.763Z,17.08
2019-03-23T03:31:32.331Z,17.05
2019-03-23T03:32:32.909Z,17.04
2019-03-23T03:33:33.577Z,17.08
2019-03-23T03:34:34.151Z,17.05
2019-03-23T03:35:34.712Z,17.08
2019-03-23T03:36:35.285Z,17.06
2019-03-23T03:37:35.858Z,17.05
2019-03-23T03:38:36.430Z,17.05
2019-03-23T03:39:37.004Z,17.06
2019-03-23T03:40:37.576Z,17.06
2019-03-23T03:41:38.149Z,17.06
2019-03-23T03:42:38.731Z,17.05
2019-03-23T03:43:39.295Z,17.06
2019-03-23T03:44:39.867Z,17.15
2019-03-23T03:45:40.442Z,17.01
2019-03-23T03:46:41.013Z,17.01
2019-03-23T03:47:41.637Z,17.02
2019-03-23T03:48:42.213Z,16.99
2019-03-23T03:49:42.781Z,17.01
2019-03-23T03:50:43.403Z,17.02
2019-03-23T03:51:43.977Z,17.01
2019-03-23T03:52:44.549Z,17.01
2019-03-23T03:53:45.122Z,16.99
2019-03-23T03:54:45.695Z,17.02
2019-03-23T03:55:46.268Z,17.02
2019-03-23T03:56:46.844Z,16.97
2019-03-23T03:57:47.455Z,16.97
2019-03-23T03:58:48.032Z,16.97
2019-03-23T03:59:48.606Z,16.97
2019-03-23T04:00:49.204Z,16.96
2019-03-23T04:01:49.797Z,16.94
2019-03-23T04:02:50.372Z,16.96
2019-03-23T04:03:50.992Z,16.94
2019-03-23T04:04:51.565Z,16.97
2019-03-23T04:05:52.137Z,16.93
2019-03-23T04:06:52.711Z,16.97
2019-03-23T04:07:53.286Z,16.99
2019-03-23T04:08:53.861Z,16.97
2019-03-23T04:09:54.430Z,16.94
2019-03-23T04:10:55.002Z,16.99
2019-03-23T04:11:55.626Z,16.99
2019-03-23T04:12:56.198Z,16.99
2019-03-23T04:13:56.774Z,17.01
2019-03-23T04:14:57.349Z,16.97
2019-03-23T04:15:57.973Z,16.99
2019-03-23T04:16:58.546Z,16.99
2019-03-23T04:17:59.120Z,16.99
2019-03-23T04:18:59.751Z,16.99
2019-03-23T04:20:00.638Z,16.99
2019-03-23T04:21:00.989Z,16.94
2019-03-23T04:22:01.555Z,17.02
2019-03-23T04:23:02.126Z,16.93
2019-03-23T04:24:02.701Z,17.02
2019-03-23T04:25:03.277Z,16.97
2019-03-23T04:26:03.997Z,16.96
2019-03-23T04:27:04.573Z,16.93
2019-03-23T04:28:05.232Z,16.96
2019-03-23T04:29:05.859Z,16.97
2019-03-23T04:30:06.428Z,16.91
2019-03-23T04:31:06.997Z,16.93
2019-03-23T04:32:07.570Z,16.90
2019-03-23T04:33:08.148Z,16.87
2019-03-23T04:34:08.726Z,16.87
2019-03-23T04:35:09.382Z,16.94
2019-03-23T04:36:09.948Z,16.84
2019-03-23T04:37:10.529Z,16.96
2019-03-23T04:38:22.243Z,16.97
2019-03-23T04:39:12.717Z,16.93
2019-03-23T04:40:13.284Z,17.01
2019-03-23T04:41:13.858Z,16.99
2019-03-23T04:42:14.481Z,17.02
2019-03-23T04:43:15.054Z,16.94
2019-03-23T04:44:15.627Z,16.99
2019-03-23T04:45:16.206Z,16.97
2019-03-23T04:46:16.823Z,16.96
2019-03-23T04:47:17.395Z,16.89
2019-03-23T04:48:17.970Z,16.89
2019-03-23T04:49:18.543Z,17.01
2019-03-23T04:50:19.118Z,16.91
2019-03-23T04:51:19.692Z,16.96
2019-03-23T04:52:20.264Z,16.96
2019-03-23T04:53:20.836Z,16.99
2019-03-23T04:54:21.409Z,16.96
2019-03-23T04:55:21.980Z,16.89
2019-03-23T04:56:22.602Z,16.96
2019-03-23T04:57:23.173Z,16.93
2019-03-23T04:58:23.745Z,16.93
2019-03-23T04:59:24.323Z,16.91
2019-03-23T05:00:24.890Z,16.89
2019-03-23T05:01:25.461Z,16.78
2019-03-23T05:02:26.037Z,16.86
2019-03-23T05:03:26.605Z,16.91
2019-03-23T05:04:27.178Z,16.93
2019-03-23T05:05:27.749Z,16.81
2019-03-23T05:06:28.373Z,16.84
2019-03-23T05:07:28.944Z,16.91
2019-03-23T05:08:33.527Z,16.91
2019-03-23T05:09:31.083Z,16.87
2019-03-23T05:10:31.656Z,16.86
2019-03-23T05:11:32.230Z,16.93
2019-03-23T05:12:32.832Z,16.86
2019-03-23T05:13:33.376Z,16.89
2019-03-23T05:14:33.949Z,16.81
2019-03-23T05:15:34.526Z,16.78
2019-03-23T05:16:35.096Z,16.86
2019-03-23T05:17:35.671Z,16.86
2019-03-23T05:18:36.245Z,16.86
2019-03-23T05:19:36.819Z,16.84
2019-03-23T05:20:37.391Z,16.83
2019-03-23T05:21:38.014Z,16.89
2019-03-23T05:22:38.587Z,16.84
2019-03-23T05:23:39.160Z,16.86
2019-03-23T05:24:39.782Z,16.84
2019-03-23T05:25:40.357Z,16.86
2019-03-23T05:26:40.932Z,16.83
2019-03-23T05:27:41.502Z,16.83
2019-03-23T05:28:42.080Z,16.87
2019-03-23T05:29:42.655Z,16.76
2019-03-23T05:30:43.276Z,16.89
2019-03-23T05:31:43.846Z,16.86
2019-03-23T05:32:44.418Z,16.84
2019-03-23T05:33:44.992Z,16.84
2019-03-23T05:34:45.563Z,16.79
2019-03-23T05:35:46.135Z,16.86
2019-03-23T05:36:46.709Z,16.84
2019-03-23T05:37:47.280Z,16.83
2019-03-23T05:38:47.857Z,16.78
2019-03-23T05:39:48.424Z,16.89
2019-03-23T05:40:48.997Z,16.79
2019-03-23T05:41:49.570Z,16.79
2019-03-23T05:42:50.145Z,16.72
2019-03-23T05:43:50.716Z,16.74
2019-03-23T05:44:51.290Z,16.81
2019-03-23T05:45:51.862Z,16.72
2019-03-23T05:46:54.282Z,16.74
2019-03-23T05:47:54.002Z,16.74
2019-03-23T05:48:54.574Z,16.74
2019-03-23T05:49:55.150Z,16.66
2019-03-23T05:50:55.723Z,16.66
2019-03-23T05:51:56.295Z,16.64
2019-03-23T05:52:56.868Z,16.58
2019-03-23T05:53:57.441Z,16.58
2019-03-23T05:54:58.212Z,16.64
2019-03-23T05:55:58.783Z,16.60
2019-03-23T05:56:59.355Z,16.61
2019-03-23T05:57:59.927Z,16.71
2019-03-23T05:59:00.550Z,16.68
2019-03-23T06:00:01.134Z,16.60
2019-03-23T06:01:01.743Z,16.60
2019-03-23T06:02:02.320Z,16.64
2019-03-23T06:03:02.932Z,16.64
2019-03-23T06:04:03.508Z,16.58
2019-03-23T06:05:04.084Z,16.66
2019-03-23T06:06:04.657Z,16.57
2019-03-23T06:07:05.230Z,16.60
2019-03-23T06:08:05.857Z,16.66
2019-03-23T06:09:06.426Z,16.68
2019-03-23T06:10:06.999Z,16.60
2019-03-23T06:11:07.571Z,16.60
2019-03-23T06:12:08.143Z,16.68
2019-03-23T06:13:08.765Z,16.64
2019-03-23T06:14:09.339Z,16.61
2019-03-23T06:15:09.964Z,16.64
2019-03-23T06:16:10.533Z,16.58
2019-03-23T06:17:11.106Z,16.69
2019-03-23T06:18:11.680Z,16.60
2019-03-23T06:19:12.250Z,16.60
2019-03-23T06:20:12.821Z,16.65
2019-03-23T06:21:13.394Z,16.64
2019-03-23T06:22:13.968Z,16.58
2019-03-23T06:23:14.542Z,16.61
2019-03-23T06:24:15.155Z,16.61
2019-03-23T06:25:15.687Z,16.60
2019-03-23T06:26:16.256Z,16.57
2019-03-23T06:27:16.879Z,16.56
2019-03-23T06:28:17.500Z,16.57
2019-03-23T06:29:18.126Z,16.64
2019-03-23T06:30:18.801Z,16.58
2019-03-23T06:31:19.456Z,16.60
2019-03-23T06:32:20.829Z,16.58
2019-03-23T06:33:21.406Z,16.50
2019-03-23T06:34:22.029Z,16.60
2019-03-23T06:35:22.602Z,16.58
2019-03-23T06:36:23.226Z,16.53
2019-03-23T06:37:23.800Z,16.56
2019-03-23T06:38:24.372Z,16.43
2019-03-23T06:39:25.095Z,16.47
2019-03-23T06:40:25.669Z,16.58
2019-03-23T06:41:26.242Z,16.50
2019-03-23T06:42:26.817Z,16.51
2019-03-23T06:43:27.387Z,16.47
2019-03-23T06:44:27.960Z,16.46
2019-03-23T06:45:28.572Z,16.43
2019-03-23T06:46:29.105Z,16.43
2019-03-23T06:47:29.677Z,16.53
2019-03-23T06:48:30.248Z,16.50
2019-03-23T06:49:30.820Z,16.47
2019-03-23T06:50:31.392Z,16.42
2019-03-23T06:51:32.014Z,16.60
2019-03-23T06:52:32.635Z,16.50
2019-03-23T06:53:33.209Z,16.54
2019-03-23T06:54:33.785Z,16.60
2019-03-23T06:55:34.360Z,16.56
2019-03-23T06:56:34.931Z,16.54
2019-03-23T06:57:35.501Z,16.57
2019-03-23T06:58:36.072Z,16.57
2019-03-23T06:59:36.646Z,16.57
2019-03-23T07:00:37.219Z,16.57
2019-03-23T07:01:37.795Z,16.56
2019-03-23T07:02:38.367Z,16.60
2019-03-23T07:03:38.938Z,16.50
2019-03-23T07:04:39.513Z,16.46
2019-03-23T07:05:40.087Z,16.56
2019-03-23T07:06:40.660Z,16.58
2019-03-23T07:07:41.235Z,16.56
2019-03-23T07:08:41.808Z,16.56
2019-03-23T07:09:42.382Z,16.54
2019-03-23T07:10:42.955Z,16.53
2019-03-23T07:11:43.528Z,16.54
2019-03-23T07:12:44.099Z,16.50
2019-03-23T07:13:44.722Z,16.57
2019-03-23T07:14:45.294Z,16.61
2019-03-23T07:15:45.868Z,16.47
2019-03-23T07:16:46.442Z,16.61
2019-03-23T07:17:47.015Z,16.57
2019-03-23T07:18:47.588Z,16.57
2019-03-23T07:19:48.362Z,16.58
2019-03-23T07:20:48.930Z,16.57
2019-03-23T07:21:49.504Z,16.53
2019-03-23T07:22:50.074Z,16.56
2019-03-23T07:23:50.649Z,16.50
2019-03-23T07:24:51.220Z,16.49
2019-03-23T07:25:51.795Z,16.58
2019-03-23T07:26:52.412Z,16.57
2019-03-23T07:29:57.520Z,16.57
2019-03-23T07:30:58.096Z,16.58
2019-03-23T07:32:05.605Z,16.57
2019-03-23T07:33:00.231Z,16.46
2019-03-23T07:34:00.806Z,16.53
2019-03-23T07:35:01.378Z,16.57
2019-03-23T07:36:02.006Z,16.57
2019-03-23T07:37:02.578Z,16.57
2019-03-23T07:38:03.155Z,16.60
2019-03-23T07:39:03.726Z,16.58
2019-03-23T07:40:04.352Z,16.61
2019-03-23T07:41:04.924Z,16.60
2019-03-23T07:42:05.543Z,16.58
2019-03-23T07:43:06.117Z,16.60
2019-03-23T07:44:06.741Z,16.58
2019-03-23T07:45:07.315Z,16.60
2019-03-23T07:46:07.886Z,16.64
2019-03-23T07:47:08.460Z,16.58
2019-03-23T07:48:09.033Z,16.58
2019-03-23T07:49:09.605Z,16.57
2019-03-23T07:50:10.228Z,16.60
2019-03-23T07:51:10.801Z,16.64
2019-03-23T07:52:11.424Z,16.69
2019-03-23T07:53:12.002Z,16.60
2019-03-23T07:54:12.575Z,16.61
2019-03-23T07:55:13.196Z,16.65
2019-03-23T07:56:13.769Z,16.60
2019-03-23T07:57:14.394Z,16.65
2019-03-23T07:58:14.967Z,16.71
2019-03-23T07:59:15.540Z,16.64
2019-03-23T08:00:16.112Z,16.72
2019-03-23T08:01:16.684Z,16.69
2019-03-23T08:02:17.257Z,16.72
2019-03-23T08:03:17.830Z,16.60
2019-03-23T08:04:18.403Z,16.65
2019-03-23T08:05:18.979Z,16.74
2019-03-23T08:06:19.594Z,16.66
2019-03-23T08:07:20.256Z,16.61
2019-03-23T08:08:20.879Z,16.75
2019-03-23T08:09:23.493Z,16.69
2019-03-23T08:10:23.020Z,16.68
2019-03-23T08:11:23.587Z,16.72
2019-03-23T08:12:24.161Z,16.69
2019-03-23T08:13:24.762Z,16.74
2019-03-23T08:14:25.342Z,16.66
2019-03-23T08:15:25.921Z,16.75
2019-03-23T08:16:26.542Z,16.78
2019-03-23T08:17:27.162Z,16.79
2019-03-23T08:18:27.734Z,16.74
2019-03-23T08:19:28.312Z,16.81
2019-03-23T08:20:28.936Z,16.79
2019-03-23T08:21:29.507Z,16.86
2019-03-23T08:22:30.128Z,16.81
2019-03-23T08:23:30.754Z,16.79
2019-03-23T08:24:31.324Z,16.74
2019-03-23T08:25:31.896Z,16.78
2019-03-23T08:26:32.472Z,16.76
2019-03-23T08:27:33.041Z,16.86
2019-03-23T08:28:33.654Z,16.86
2019-03-23T08:29:34.230Z,16.89
2019-03-23T08:30:34.803Z,16.89
2019-03-23T08:31:35.420Z,16.93
2019-03-23T08:32:36.048Z,16.93
2019-03-23T08:33:36.663Z,16.83
2019-03-23T08:34:37.236Z,16.91
2019-03-23T08:35:37.817Z,16.93
2019-03-23T08:36:38.382Z,16.84
2019-03-23T08:37:38.956Z,16.84
2019-03-23T08:38:39.579Z,16.83
2019-03-23T08:39:48.155Z,16.83
2019-03-23T08:40:41.721Z,16.93
2019-03-23T08:41:42.349Z,16.96
2019-03-23T08:42:42.924Z,16.89
2019-03-23T08:43:43.549Z,16.90
2019-03-23T08:44:44.131Z,16.94
2019-03-23T08:45:44.698Z,16.91
2019-03-23T08:46:46.364Z,16.96
2019-03-23T08:47:46.838Z,16.99
2019-03-23T08:48:47.414Z,17.04
2019-03-23T08:49:47.990Z,16.99
2019-03-23T08:50:48.653Z,17.05
2019-03-23T08:51:49.231Z,17.05
2019-03-23T08:52:49.805Z,17.11
2019-03-23T08:53:50.383Z,17.08
2019-03-23T08:54:50.957Z,17.15
2019-03-23T08:55:51.531Z,17.14
2019-03-23T08:56:52.105Z,17.20
2019-03-23T08:57:52.678Z,17.16
2019-03-23T08:58:53.252Z,17.12
2019-03-23T08:59:53.825Z,17.15
2019-03-23T09:00:54.399Z,17.14
2019-03-23T09:01:54.972Z,17.15
2019-03-23T09:02:55.595Z,17.19
2019-03-23T09:03:56.170Z,17.11
2019-03-23T09:04:56.744Z,17.22
2019-03-23T09:05:57.321Z,17.23
2019-03-23T09:06:57.944Z,17.06
2019-03-23T09:07:58.717Z,17.08
2019-03-23T09:08:59.341Z,17.19
2019-03-23T09:09:59.917Z,17.19
2019-03-23T09:11:00.490Z,17.22
2019-03-23T09:12:01.063Z,17.20
2019-03-23T09:13:01.638Z,17.08
2019-03-23T09:14:02.211Z,17.27
2019-03-23T09:15:02.784Z,17.19
2019-03-23T09:16:03.408Z,17.14
2019-03-23T09:17:03.986Z,17.23
2019-03-23T09:18:04.605Z,17.23
2019-03-23T09:19:05.229Z,17.22
2019-03-23T09:20:05.803Z,17.27
2019-03-23T09:21:06.376Z,17.24
2019-03-23T09:22:06.951Z,17.24
2019-03-23T09:23:07.525Z,17.30
2019-03-23T09:24:08.150Z,17.24
2019-03-23T09:25:08.775Z,17.27
2019-03-23T09:26:09.347Z,17.27
2019-03-23T09:27:09.922Z,17.26
2019-03-23T09:28:10.495Z,17.38
2019-03-23T09:29:11.118Z,17.31
2019-03-23T09:30:11.693Z,17.33
2019-03-23T09:31:12.271Z,17.36
2019-03-23T09:32:12.843Z,17.29
2019-03-23T09:33:13.468Z,17.31
2019-03-23T09:34:14.042Z,17.24
2019-03-23T09:35:14.615Z,17.36
2019-03-23T09:36:15.190Z,17.30
2019-03-23T09:37:15.763Z,17.46
2019-03-23T09:38:16.386Z,17.42
2019-03-23T09:39:16.963Z,17.41
2019-03-23T09:40:17.538Z,17.31
2019-03-23T09:41:18.163Z,17.44
2019-03-23T09:42:18.785Z,17.42
2019-03-23T09:43:19.360Z,17.41
2019-03-23T09:44:19.985Z,17.45
2019-03-23T09:45:20.558Z,17.41
2019-03-23T09:46:21.133Z,17.44
2019-03-23T09:47:21.708Z,17.45
2019-03-23T09:48:22.283Z,17.45
2019-03-23T09:49:22.855Z,17.49
2019-03-23T09:50:23.480Z,17.46
2019-03-23T09:51:24.108Z,17.44
2019-03-23T09:52:24.670Z,17.42
2019-03-23T09:53:25.249Z,17.46
2019-03-23T09:54:25.824Z,17.45
2019-03-23T09:55:28.586Z,17.48
2019-03-23T09:56:27.971Z,17.51
2019-03-23T09:57:28.539Z,17.49
2019-03-23T09:58:29.117Z,17.56
2019-03-23T09:59:29.692Z,17.56
2019-03-23T10:00:30.266Z,17.59
2019-03-23T10:01:30.893Z,17.63
2019-03-23T10:02:31.470Z,17.57
2019-03-23T10:03:32.044Z,17.64
2019-03-23T10:04:32.621Z,17.57
2019-03-23T10:05:33.245Z,17.63
2019-03-23T10:06:33.870Z,17.56
2019-03-23T10:07:34.449Z,17.64
2019-03-23T10:08:35.021Z,17.67
2019-03-23T10:09:35.648Z,17.65
2019-03-23T10:10:36.223Z,17.74
2019-03-23T10:11:36.796Z,17.68
2019-03-23T10:12:37.373Z,17.70
2019-03-23T10:13:37.948Z,17.72
2019-03-23T10:14:38.526Z,17.71
2019-03-23T10:15:39.150Z,17.65
2019-03-23T10:16:39.775Z,17.72
2019-03-23T10:17:40.363Z,17.76
2019-03-23T10:18:40.967Z,17.76
2019-03-23T10:19:41.543Z,17.71
2019-03-23T10:20:42.115Z,17.72
2019-03-23T10:21:42.692Z,17.82
2019-03-23T10:22:43.326Z,17.83
2019-03-23T10:23:43.887Z,17.85
2019-03-23T10:24:44.510Z,17.83
2019-03-23T10:25:45.087Z,17.86
2019-03-23T10:26:45.663Z,17.95
2019-03-23T10:27:46.240Z,17.98
2019-03-23T10:28:46.828Z,17.86
2019-03-23T10:29:47.386Z,18.00
2019-03-23T10:30:47.961Z,17.98
2019-03-23T10:31:48.584Z,17.98
2019-03-23T10:32:49.157Z,18.03
2019-03-23T10:33:49.731Z,18.00
2019-03-23T10:35:52.018Z,18.10
2019-03-23T10:36:52.587Z,18.00
2019-03-23T10:38:50.928Z,18.01
2019-03-23T10:39:51.552Z,18.07
2019-03-23T10:40:52.177Z,18.07
2019-03-23T10:41:52.805Z,18.13
2019-03-23T10:42:53.380Z,18.10
2019-03-23T10:43:53.956Z,18.10
2019-03-23T10:44:54.531Z,18.23
2019-03-23T10:45:55.105Z,18.23
2019-03-23T10:46:55.681Z,18.13
2019-03-23T10:48:56.833Z,18.10
2019-03-23T10:49:57.406Z,18.23
2019-03-23T10:50:57.981Z,18.20
2019-03-23T10:51:58.555Z,18.25
2019-03-23T10:52:59.135Z,18.26
2019-03-23T10:53:59.759Z,18.28
2019-03-23T10:55:00.356Z,18.29
2019-03-23T10:56:00.965Z,18.25
2019-03-23T10:57:01.581Z,18.31
2019-03-23T10:58:02.157Z,18.34
2019-03-23T10:59:02.779Z,18.35
2019-03-23T11:00:03.353Z,18.33
2019-03-23T11:01:03.929Z,18.34
2019-03-23T11:02:04.510Z,18.40
2019-03-23T11:03:05.083Z,18.34
2019-03-23T11:04:05.657Z,18.45
2019-03-23T11:05:06.234Z,18.35
2019-03-23T11:06:06.808Z,18.45
2019-03-23T11:07:07.383Z,18.38
2019-03-23T11:08:07.956Z,18.43
2019-03-23T11:09:08.530Z,18.38
2019-03-23T11:10:09.105Z,18.38
2019-03-23T11:11:09.679Z,18.44
2019-03-23T11:12:10.255Z,18.45
2019-03-23T11:13:10.829Z,18.43
2019-03-23T11:14:11.453Z,18.43
2019-03-23T11:15:12.079Z,18.38
2019-03-23T11:16:12.654Z,18.47
2019-03-23T11:17:13.231Z,18.47
2019-03-23T11:18:13.852Z,18.49
2019-03-23T11:19:14.431Z,18.45
2019-03-23T11:20:15.007Z,18.55
2019-03-23T11:21:15.630Z,18.50
2019-03-23T11:22:16.204Z,18.56
2019-03-23T11:23:16.777Z,18.52
2019-03-23T11:24:17.353Z,18.60
2019-03-23T11:25:17.924Z,18.56
2019-03-23T11:26:18.541Z,18.49
2019-03-23T11:27:19.123Z,18.59
2019-03-23T11:28:19.700Z,18.53
2019-03-23T11:29:20.327Z,18.50
2019-03-23T11:30:20.903Z,18.65
2019-03-23T11:31:21.477Z,18.66
2019-03-23T11:32:22.254Z,18.60
2019-03-23T11:33:22.880Z,18.58
2019-03-23T11:34:23.456Z,18.62
2019-03-23T11:35:24.082Z,18.62
2019-03-23T11:36:24.672Z,18.66
2019-03-23T11:37:25.389Z,18.62
2019-03-23T11:38:26.008Z,18.65
2019-03-23T11:39:26.583Z,18.71
2019-03-23T11:40:27.160Z,18.73
2019-03-23T11:41:27.735Z,18.73
2019-03-23T11:42:28.309Z,18.77
2019-03-23T11:43:28.888Z,18.73
2019-03-23T11:44:29.459Z,18.78
2019-03-23T11:45:30.032Z,18.84
2019-03-23T11:46:30.607Z,18.80
2019-03-23T11:47:31.182Z,18.80
2019-03-23T11:49:55.181Z,18.88
2019-03-23T11:50:55.751Z,18.92
2019-03-23T11:51:56.315Z,18.90
2019-03-23T11:53:10.603Z,18.90
2019-03-23T11:54:11.228Z,18.90
2019-03-23T11:55:11.804Z,18.95
2019-03-23T11:56:12.534Z,18.98
2019-03-23T11:57:13.108Z,18.90
2019-03-23T11:58:13.683Z,18.90
2019-03-23T11:59:14.261Z,18.93
2019-03-23T12:00:14.834Z,18.98
2019-03-23T12:01:15.411Z,18.90
2019-03-23T12:02:16.038Z,19.02
2019-03-23T12:03:16.652Z,19.02
2019-03-23T12:04:17.232Z,19.04
2019-03-23T12:05:17.846Z,19.11
2019-03-23T12:06:18.420Z,18.98
2019-03-23T12:07:19.145Z,19.04
2019-03-23T12:08:19.721Z,19.09
2019-03-23T12:09:20.297Z,19.14
2019-03-23T12:10:20.922Z,19.04
2019-03-23T12:11:21.499Z,18.99
2019-03-23T12:12:22.074Z,19.08
2019-03-23T12:14:24.270Z,19.09
2019-03-23T12:15:24.845Z,19.12
2019-03-23T12:16:25.512Z,19.11
2019-03-23T12:17:26.090Z,19.08
2019-03-23T12:18:26.718Z,19.11
2019-03-23T12:19:27.293Z,19.15
2019-03-23T12:20:27.871Z,19.11
2019-03-23T12:21:28.444Z,19.11
2019-03-23T12:22:29.018Z,19.22
2019-03-23T12:23:29.645Z,19.11
2019-03-23T12:24:30.220Z,19.14
2019-03-23T12:25:30.846Z,19.18
2019-03-23T12:26:31.430Z,19.26
2019-03-23T12:27:32.045Z,19.21
2019-03-23T12:28:32.663Z,19.14
2019-03-23T12:29:33.235Z,19.21
2019-03-23T12:30:34.008Z,19.19
2019-03-23T12:31:34.634Z,19.21
2019-03-23T12:32:35.259Z,19.24
2019-03-23T12:33:35.934Z,19.18
2019-03-23T12:34:36.558Z,19.16
2019-03-23T12:35:37.135Z,19.19
2019-03-23T12:36:37.707Z,19.26
2019-03-23T12:37:38.281Z,19.21
2019-03-23T12:38:38.856Z,19.26
2019-03-23T12:39:39.430Z,19.29
2019-03-23T12:40:40.055Z,19.26
2019-03-23T12:41:40.626Z,19.21
2019-03-23T12:42:41.205Z,19.24
2019-03-23T12:43:41.785Z,19.24
2019-03-23T12:44:42.364Z,19.34
2019-03-23T12:45:42.939Z,19.31
2019-03-23T12:46:48.177Z,19.31
2019-03-23T12:47:45.086Z,19.39
2019-03-23T12:48:45.662Z,19.36
2019-03-23T12:49:46.238Z,19.34
2019-03-23T12:50:46.812Z,19.34
2019-03-23T12:51:47.389Z,19.36
2019-03-23T12:52:47.968Z,19.41
2019-03-23T12:53:48.539Z,19.44
2019-03-23T12:54:49.114Z,19.41
2019-03-23T12:55:49.694Z,19.44
2019-03-23T12:56:50.266Z,19.48
2019-03-23T12:57:50.839Z,19.49
2019-03-23T12:58:51.412Z,19.51
2019-03-23T12:59:51.989Z,19.49
2019-03-23T13:00:52.571Z,19.49
2019-03-23T13:01:53.181Z,19.51
2019-03-23T13:02:53.756Z,19.54
2019-03-23T13:03:54.331Z,19.51
2019-03-23T13:04:54.959Z,19.51
2019-03-23T13:05:55.533Z,19.47
2019-03-23T13:06:56.111Z,19.45
2019-03-23T13:07:56.685Z,19.48